createdAt,value
2023-04-18T00:00:36.808Z,10.32
2023-04-18T00:03:04.666Z,10.50
2023-04-18T00:05:31.425Z,10.38
2023-04-18T00:07:57.817Z,10.13
2023-04-18T00:10:24.265Z,10.00
2023-04-18T00:12:51.366Z,10.75
2023-04-18T00:15:18.371Z,9.90
2023-04-18T00:17:44.775Z,9.77
2023-04-18T00:20:12.732Z,9.73
2023-04-18T00:22:46.662Z,9.00
2023-04-18T00:25:13.179Z,9.27
2023-04-18T00:27:39.584Z,8.43
2023-04-18T00:30:07.127Z,8.32
2023-04-18T00:32:33.560Z,8.68
2023-04-18T00:34:59.970Z,8.27
2023-04-18T00:37:27.013Z,8.88
2023-04-18T00:39:53.895Z,8.60
2023-04-18T00:42:25.393Z,8.75
2023-04-18T00:44:51.791Z,8.80
2023-04-18T00:47:18.209Z,9.18
2023-04-18T00:49:45.470Z,9.27
2023-04-18T00:52:12.465Z,8.93
2023-04-18T00:54:40.616Z,9.05
2023-04-18T00:57:07.834Z,8.88
2023-04-18T00:59:35.421Z,9.45
2023-04-18T01:02:05.207Z,9.43
2023-04-18T01:04:34.553Z,8.13
2023-04-18T01:07:02.111Z,8.82
2023-04-18T01:09:28.663Z,9.07
2023-04-18T01:11:55.048Z,8.88
2023-04-18T01:14:21.648Z,7.75
2023-04-18T01:16:50.986Z,7.82
2023-04-18T01:19:17.453Z,7.40
2023-04-18T01:21:44.114Z,8.25
2023-04-18T01:24:12.744Z,7.38
2023-04-18T01:26:40.050Z,7.70
2023-04-18T01:29:06.946Z,7.40
2023-04-18T01:31:37.542Z,7.80
2023-04-18T01:34:05.314Z,7.75
2023-04-18T01:36:32.597Z,7.70
2023-04-18T01:38:59.696Z,7.57
2023-04-18T01:41:28.980Z,6.68
2023-04-18T01:43:55.360Z,6.85
2023-04-18T01:46:21.766Z,6.63
2023-04-18T01:48:48.145Z,6.60
2023-04-18T01:51:14.553Z,7.13
2023-04-18T01:53:41.760Z,7.18
2023-04-18T01:56:10.093Z,7.20
2023-04-18T01:58:36.972Z,6.68
2023-04-18T02:01:03.902Z,6.88
2023-04-18T02:03:30.489Z,6.30
2023-04-18T02:05:57.100Z,7.70
2023-04-18T02:08:23.486Z,6.55
2023-04-18T02:10:49.825Z,6.82
2023-04-18T02:13:16.205Z,7.28
2023-04-18T02:15:45.787Z,7.07
2023-04-18T02:18:12.250Z,7.00
2023-04-18T02:20:39.158Z,6.80
2023-04-18T02:23:05.633Z,6.68
2023-04-18T02:25:31.990Z,7.15
2023-04-18T02:27:58.356Z,6.22
2023-04-18T02:30:25.668Z,7.20
2023-04-18T02:32:53.796Z,6.78
2023-04-18T02:35:21.030Z,6.53
2023-04-18T02:37:47.474Z,7.32
2023-04-18T02:40:14.074Z,6.28
2023-04-18T02:42:40.569Z,6.78
2023-04-18T02:45:07.815Z,7.18
2023-04-18T02:47:47.027Z,6.78
2023-04-18T02:50:17.999Z,7.35
2023-04-18T02:52:44.335Z,7.93
2023-04-18T02:55:10.894Z,6.63
2023-04-18T02:57:37.252Z,7.05
2023-04-18T03:00:04.597Z,7.28
2023-04-18T03:02:31.116Z,7.07
2023-04-18T03:04:57.554Z,7.90
2023-04-18T03:07:24.010Z,6.78
2023-04-18T03:09:50.530Z,6.63
2023-04-18T03:12:16.883Z,7.30
2023-04-18T03:14:44.475Z,6.65
2023-04-18T03:17:11.158Z,7.00
2023-04-18T03:19:37.502Z,7.45
2023-04-18T03:22:03.846Z,7.72
2023-04-18T03:24:30.196Z,7.40
2023-04-18T03:26:56.694Z,7.63
2023-04-18T03:29:23.162Z,6.82
2023-04-18T03:31:49.632Z,7.75
2023-04-18T03:34:16.055Z,7.85
2023-04-18T03:36:42.612Z,7.72
2023-04-18T03:39:09.082Z,7.45
2023-04-18T03:41:35.433Z,6.93
2023-04-18T03:44:01.740Z,7.60
2023-04-18T03:46:28.287Z,8.23
2023-04-18T03:48:54.650Z,7.32
2023-04-18T03:51:21.038Z,6.93
2023-04-18T03:53:47.396Z,8.20
2023-04-18T03:56:13.840Z,8.00
2023-04-18T03:58:40.283Z,7.97
2023-04-18T04:01:07.636Z,7.90
2023-04-18T04:03:34.074Z,7.90
2023-04-18T04:06:00.888Z,7.75
2023-04-18T04:08:28.318Z,8.02
2023-04-18T04:10:54.844Z,7.90
2023-04-18T04:13:21.148Z,7.38
2023-04-18T04:15:47.484Z,9.50
2023-04-18T04:18:13.808Z,8.18
2023-04-18T04:20:40.118Z,8.15
2023-04-18T04:23:06.983Z,9.00
2023-04-18T04:25:34.064Z,8.00
2023-04-18T04:28:01.421Z,7.70
2023-04-18T04:30:28.603Z,7.78
2023-04-18T04:32:55.124Z,7.80
2023-04-18T04:35:21.621Z,8.80
2023-04-18T04:37:48.263Z,7.50
2023-04-18T04:40:15.640Z,8.00
2023-04-18T04:42:42.260Z,8.70
2023-04-18T04:45:09.506Z,8.15
2023-04-18T04:47:36.622Z,8.73
2023-04-18T04:50:04.330Z,7.53
2023-04-18T04:52:32.629Z,9.13
2023-04-18T04:54:59.023Z,8.23
2023-04-18T04:57:25.560Z,8.25
2023-04-18T04:59:51.867Z,8.68
2023-04-18T05:02:18.321Z,8.90
2023-04-18T05:04:44.716Z,8.02
2023-04-18T05:07:11.099Z,9.07
2023-04-18T05:09:37.436Z,8.23
2023-04-18T05:12:04.385Z,8.80
2023-04-18T05:14:31.014Z,8.30
2023-04-18T05:16:57.473Z,8.38
2023-04-18T05:19:23.884Z,7.88
2023-04-18T05:21:50.183Z,8.10
2023-04-18T05:24:16.797Z,8.63
2023-04-18T05:26:43.445Z,8.68
2023-04-18T05:29:09.861Z,7.90
2023-04-18T05:31:36.348Z,8.35
2023-04-18T05:34:03.042Z,8.25
2023-04-18T05:36:29.488Z,8.20
2023-04-18T05:38:55.842Z,7.53
2023-04-18T05:41:22.874Z,8.65
2023-04-18T05:43:58.088Z,8.50
2023-04-18T05:46:31.706Z,8.43
2023-04-18T05:48:58.089Z,7.70
2023-04-18T05:51:24.503Z,7.97
2023-04-18T05:53:51.072Z,8.85
2023-04-18T05:56:17.450Z,7.72
2023-04-18T05:58:45.530Z,8.65
2023-04-18T06:01:14.179Z,8.15
2023-04-18T06:03:41.511Z,7.72
2023-04-18T06:06:08.362Z,8.68
2023-04-18T06:08:34.763Z,8.38
2023-04-18T06:11:01.132Z,7.90
2023-04-18T06:13:27.437Z,8.05
2023-04-18T06:15:54.031Z,8.25
2023-04-18T06:18:20.414Z,8.30
2023-04-18T06:20:46.805Z,8.35
2023-04-18T06:23:13.237Z,8.32
2023-04-18T06:25:41.569Z,8.48
2023-04-18T06:28:08.007Z,7.93
2023-04-18T06:30:34.662Z,8.20
2023-04-18T06:33:01.076Z,7.82
2023-04-18T06:35:30.746Z,7.55
2023-04-18T06:37:57.129Z,8.18
2023-04-18T06:40:23.452Z,7.60
2023-04-18T06:42:49.777Z,7.25
2023-04-18T06:45:16.242Z,7.40
2023-04-18T06:47:42.596Z,8.10
2023-04-18T06:50:09.554Z,7.38
2023-04-18T06:52:40.368Z,7.65
2023-04-18T06:55:08.961Z,7.35
2023-04-18T06:57:35.336Z,7.13
2023-04-18T07:00:01.768Z,7.72
2023-04-18T07:02:28.218Z,6.88
2023-04-18T07:04:54.757Z,7.78
2023-04-18T07:07:21.198Z,7.90
2023-04-18T07:09:48.461Z,6.95
2023-04-18T07:12:15.380Z,7.40
2023-04-18T07:14:42.022Z,7.20
2023-04-18T07:17:08.575Z,6.93
2023-04-18T07:19:35.024Z,6.55
2023-04-18T07:22:01.340Z,7.43
2023-04-18T07:24:27.748Z,6.65
2023-04-18T07:26:55.227Z,6.28
2023-04-18T07:29:21.676Z,7.13
2023-04-18T07:31:48.417Z,6.63
2023-04-18T07:34:15.322Z,6.55
2023-04-18T07:36:42.147Z,6.45
2023-04-18T07:39:08.606Z,6.72
2023-04-18T07:41:35.608Z,6.70
2023-04-18T07:44:02.718Z,7.03
2023-04-18T07:46:29.421Z,6.70
2023-04-18T07:48:56.026Z,6.57
2023-04-18T07:51:25.280Z,6.32
2023-04-18T07:53:51.740Z,5.93
2023-04-18T07:56:18.577Z,6.10
2023-04-18T07:58:44.971Z,5.82
2023-04-18T08:01:15.229Z,6.18
2023-04-18T08:03:41.788Z,5.32
2023-04-18T08:06:08.421Z,5.53
2023-04-18T08:08:34.729Z,5.78
2023-04-18T08:11:01.181Z,6.35
2023-04-18T08:13:27.637Z,5.35
2023-04-18T08:15:55.773Z,6.18
2023-04-18T08:18:23.122Z,5.57
2023-04-18T08:20:49.488Z,5.82
2023-04-18T08:23:15.950Z,5.78
2023-04-18T08:25:42.372Z,5.30
2023-04-18T08:28:08.830Z,5.78
2023-04-18T08:30:35.353Z,5.20
2023-04-18T08:33:02.246Z,5.90
2023-04-18T08:35:28.749Z,5.88
2023-04-18T08:37:55.241Z,5.60
2023-04-18T08:40:21.885Z,5.55
2023-04-18T08:42:49.411Z,5.47
2023-04-18T08:45:16.194Z,6.25
2023-04-18T08:47:42.974Z,5.88
2023-04-18T08:50:10.397Z,5.68
2023-04-18T08:55:05.688Z,5.40
2023-04-18T08:57:33.180Z,5.72
2023-04-18T09:02:38.971Z,5.43
2023-04-18T09:05:19.566Z,5.30
2023-04-18T09:07:47.437Z,5.13
2023-04-18T09:10:24.113Z,5.47
2023-04-18T09:12:50.806Z,5.63
2023-04-18T09:15:20.218Z,5.90
2023-04-18T09:17:53.294Z,5.47
2023-04-18T09:20:41.108Z,5.82
2023-04-18T09:23:10.764Z,5.65
2023-04-18T09:25:44.770Z,5.90
2023-04-18T09:31:15.319Z,5.35
2023-04-18T09:33:54.111Z,5.53
2023-04-18T09:36:24.771Z,4.93
2023-04-18T09:38:55.534Z,5.07
2023-04-18T09:41:23.343Z,5.15
2023-04-18T09:43:50.015Z,5.35
2023-04-18T09:46:17.764Z,4.90
2023-04-18T09:48:44.379Z,5.85
2023-04-18T09:51:14.978Z,5.72
2023-04-18T09:53:44.869Z,5.55
2023-04-18T09:56:27.954Z,6.47
2023-04-18T09:59:07.131Z,5.22
2023-04-18T10:01:34.033Z,4.65
2023-04-18T10:04:04.108Z,5.47
2023-04-18T10:06:33.861Z,5.15
2023-04-18T10:09:04.162Z,5.95
2023-04-18T10:11:31.689Z,5.72
2023-04-18T10:16:28.688Z,4.97
2023-04-18T10:21:21.933Z,5.43
2023-04-18T10:23:51.127Z,5.72
2023-04-18T10:26:17.515Z,6.57
2023-04-18T10:28:57.303Z,6.05
2023-04-18T10:31:28.614Z,5.60
2023-04-18T10:36:28.580Z,6.35
2023-04-18T10:39:25.494Z,5.50
2023-04-18T10:41:51.989Z,4.43
2023-04-18T10:44:21.777Z,3.90
2023-04-18T10:46:48.057Z,4.68
2023-04-18T10:49:21.908Z,5.00
2023-04-18T10:51:51.139Z,4.30
2023-04-18T10:54:21.141Z,4.78
2023-04-18T10:56:59.004Z,4.93
2023-04-18T10:59:26.975Z,4.85
2023-04-18T11:01:59.971Z,4.55
2023-04-18T11:04:26.572Z,4.75
2023-04-18T11:06:58.334Z,4.75
2023-04-18T11:09:24.960Z,5.40
2023-04-18T11:12:11.328Z,5.45
2023-04-18T11:14:46.319Z,6.20
2023-04-18T11:17:26.769Z,5.32
2023-04-18T11:20:01.300Z,5.50
2023-04-18T11:22:27.820Z,5.43
2023-04-18T11:24:59.014Z,5.10
2023-04-18T11:27:26.833Z,5.90
2023-04-18T11:29:54.517Z,6.32
2023-04-18T11:32:23.206Z,6.35
2023-04-18T11:34:55.881Z,6.40
2023-04-18T11:37:22.605Z,6.78
2023-04-18T11:39:51.929Z,6.13
2023-04-18T11:42:18.317Z,6.55
2023-04-18T11:44:49.156Z,5.57
2023-04-18T11:47:30.482Z,5.68
2023-04-18T11:50:01.785Z,7.15
2023-04-18T11:52:30.487Z,6.72
2023-04-18T11:55:14.952Z,7.30
2023-04-18T11:57:41.800Z,7.82
2023-04-18T12:00:10.658Z,7.10
2023-04-18T12:02:46.073Z,7.63
2023-04-18T12:05:24.162Z,7.57
2023-04-18T12:07:50.682Z,7.15
2023-04-18T12:10:19.963Z,6.88
2023-04-18T12:12:51.314Z,7.32
2023-04-18T12:15:18.407Z,7.35
2023-04-18T12:17:46.631Z,7.88
2023-04-18T12:20:13.426Z,7.80
2023-04-18T12:22:42.039Z,7.45
2023-04-18T12:25:24.217Z,7.95
2023-04-18T12:27:58.146Z,7.80
2023-04-18T12:30:36.013Z,8.05
2023-04-18T12:33:04.320Z,7.68
2023-04-18T12:35:31.881Z,7.93
2023-04-18T12:38:02.821Z,7.80
2023-04-18T12:40:30.129Z,8.25
2023-04-18T12:42:56.884Z,7.20
2023-04-18T12:45:24.041Z,7.68
2023-04-18T12:47:52.265Z,7.70
2023-04-18T12:50:21.818Z,7.35
2023-04-18T12:52:48.834Z,7.82
2023-04-18T12:55:15.761Z,8.82
2023-04-18T12:57:43.086Z,7.47
2023-04-18T13:00:12.806Z,8.38
2023-04-18T13:02:42.158Z,7.85
2023-04-18T13:05:10.890Z,7.78
2023-04-18T13:07:40.387Z,7.93
2023-04-18T13:10:08.863Z,8.25
2023-04-18T13:12:35.530Z,8.90
2023-04-18T13:15:02.053Z,8.48
2023-04-18T13:17:28.549Z,8.73
2023-04-18T13:19:54.905Z,8.60
2023-04-18T13:22:21.416Z,9.25
2023-04-18T13:24:48.376Z,9.23
2023-04-18T13:27:14.840Z,9.77
2023-04-18T13:29:43.088Z,8.93
2023-04-18T13:32:09.594Z,9.38
2023-04-18T13:34:42.325Z,10.07
2023-04-18T13:37:08.698Z,9.63
2023-04-18T13:39:35.043Z,9.05
2023-04-18T13:42:04.521Z,10.38
2023-04-18T13:44:31.500Z,9.88
2023-04-18T13:46:57.971Z,8.77
2023-04-18T13:49:24.441Z,9.05
2023-04-18T13:51:53.425Z,9.20
2023-04-18T13:54:20.079Z,10.07
2023-04-18T13:56:46.486Z,8.60
2023-04-18T13:59:13.102Z,9.38
2023-04-18T14:01:39.983Z,10.30
2023-04-18T14:04:06.780Z,8.80
2023-04-18T14:06:33.397Z,9.20
2023-04-18T14:08:59.757Z,9.27
2023-04-18T14:11:26.387Z,8.60
2023-04-18T14:13:52.760Z,8.15
2023-04-18T14:16:19.366Z,9.13
2023-04-18T14:18:46.167Z,8.30
2023-04-18T14:21:13.549Z,9.13
2023-04-18T14:23:39.886Z,9.73
2023-04-18T14:26:06.197Z,8.43
2023-04-18T14:28:32.590Z,8.82
2023-04-18T14:31:01.969Z,9.15
2023-04-18T14:33:29.238Z,9.82
2023-04-18T14:35:55.598Z,8.93
2023-04-18T14:38:21.985Z,8.57
2023-04-18T14:40:48.478Z,8.65
2023-04-18T14:43:14.857Z,8.93
2023-04-18T14:45:41.230Z,7.60
2023-04-18T14:48:10.215Z,8.60
2023-04-18T14:50:38.457Z,8.73
2023-04-18T14:53:05.981Z,8.75
2023-04-18T14:55:33.266Z,8.95
2023-04-18T14:58:00.143Z,8.32
2023-04-18T15:00:27.349Z,8.75
2023-04-18T15:02:53.949Z,8.63
2023-04-18T15:05:23.601Z,9.02
2023-04-18T15:07:51.865Z,8.70
2023-04-18T15:10:19.608Z,8.23
2023-04-18T15:12:48.958Z,8.30
2023-04-18T15:15:15.319Z,8.60
2023-04-18T15:17:42.057Z,8.35
2023-04-18T15:20:09.377Z,7.75
2023-04-18T15:22:36.030Z,8.25
2023-04-18T15:25:03.924Z,7.93
2023-04-18T15:27:30.419Z,8.25
2023-04-18T15:29:56.865Z,7.80
2023-04-18T15:32:23.408Z,7.35
2023-04-18T15:34:49.927Z,7.93
2023-04-18T15:37:16.328Z,7.38
2023-04-18T15:39:42.653Z,8.02
2023-04-18T15:42:09.036Z,7.72
2023-04-18T15:44:35.592Z,8.23
2023-04-18T15:47:02.055Z,7.72
2023-04-18T15:49:28.794Z,8.35
2023-04-18T15:51:56.651Z,8.68
2023-04-18T15:54:23.075Z,8.50
2023-04-18T15:56:49.506Z,8.23
2023-04-18T15:59:15.819Z,7.93
2023-04-18T16:01:45.236Z,7.68
2023-04-18T16:04:12.557Z,7.55
2023-04-18T16:06:39.266Z,7.45
2023-04-18T16:09:06.858Z,7.57
2023-04-18T16:11:33.225Z,7.63
2023-04-18T16:13:59.536Z,6.85
2023-04-18T16:16:26.546Z,7.47
2023-04-18T16:21:19.330Z,6.90
2023-04-18T16:23:45.821Z,7.22
2023-04-18T16:26:12.201Z,7.30
2023-04-18T16:28:38.748Z,6.90
2023-04-18T16:31:06.357Z,7.25
2023-04-18T16:33:32.966Z,7.22
2023-04-18T16:36:02.929Z,11.85
2023-04-18T16:38:29.488Z,8.55
2023-04-18T16:40:57.342Z,7.53
2023-04-18T16:43:24.191Z,7.60
2023-04-18T16:45:50.614Z,7.20
2023-04-18T16:48:17.061Z,7.10
2023-04-18T16:50:45.588Z,7.38
2023-04-18T16:53:12.017Z,7.80
2023-04-18T16:55:38.325Z,7.75
2023-04-18T16:58:04.761Z,7.35
2023-04-18T17:00:31.269Z,6.78
2023-04-18T17:02:58.244Z,7.50
2023-04-18T17:05:25.851Z,7.13
2023-04-18T17:07:52.509Z,6.97
2023-04-18T17:10:19.318Z,7.32
2023-04-18T17:12:48.972Z,7.30
2023-04-18T17:15:19.148Z,7.43
2023-04-18T17:17:45.842Z,7.45
2023-04-18T17:20:12.620Z,8.15
2023-04-18T17:22:39.089Z,8.10
2023-04-18T17:25:05.970Z,7.20
2023-04-18T17:27:32.489Z,7.97
2023-04-18T17:29:58.955Z,7.15
2023-04-18T17:32:25.428Z,7.43
2023-04-18T17:34:52.105Z,7.32
2023-04-18T17:37:19.890Z,7.25
2023-04-18T17:39:46.199Z,7.70
2023-04-18T17:42:12.796Z,7.47
2023-04-18T17:44:39.785Z,7.22
2023-04-18T17:47:06.753Z,7.20
2023-04-18T17:49:35.990Z,7.20
2023-04-18T17:52:03.389Z,7.47
2023-04-18T17:54:30.273Z,9.10
2023-04-18T17:56:57.689Z,8.07
2023-04-18T17:59:24.036Z,7.15
2023-04-18T18:01:50.777Z,7.43
2023-04-18T18:04:17.308Z,7.90
2023-04-18T18:06:54.092Z,7.55
2023-04-18T18:09:20.590Z,7.53
2023-04-18T18:11:46.925Z,7.95
2023-04-18T18:14:13.569Z,7.38
2023-04-18T18:16:40.169Z,7.13
2023-04-18T18:19:09.584Z,8.02
2023-04-18T18:21:36.462Z,7.30
2023-04-18T18:24:03.013Z,7.35
2023-04-18T18:26:29.348Z,7.60
2023-04-18T18:28:55.721Z,7.63
2023-04-18T18:31:24.811Z,8.25
2023-04-18T18:33:52.005Z,7.35
2023-04-18T18:36:18.418Z,7.00
2023-04-18T18:38:44.868Z,7.65
2023-04-18T18:41:11.202Z,7.85
2023-04-18T18:43:37.707Z,7.45
2023-04-18T18:46:04.186Z,7.90
2023-04-18T18:48:32.607Z,6.82
2023-04-18T18:50:58.925Z,7.50
2023-04-18T18:53:25.378Z,8.15
2023-04-18T18:55:51.765Z,7.88
2023-04-18T18:58:18.092Z,7.47
2023-04-18T19:00:45.930Z,7.47
2023-04-18T19:03:12.654Z,7.30
2023-04-18T19:05:39.121Z,7.07
2023-04-18T19:08:06.506Z,8.00
2023-04-18T19:10:32.984Z,6.45
2023-04-18T19:13:00.212Z,7.00
2023-04-18T19:15:26.749Z,6.88
2023-04-18T19:17:53.099Z,5.82
2023-04-18T19:20:19.601Z,6.45
2023-04-18T19:22:46.002Z,5.80
2023-04-18T19:25:12.411Z,6.35
2023-04-18T19:27:38.749Z,6.03
2023-04-18T19:30:05.854Z,5.85
2023-04-18T19:32:32.595Z,5.30
2023-04-18T19:34:59.907Z,5.55
2023-04-18T19:37:26.395Z,5.95
2023-04-18T19:39:52.972Z,5.70
2023-04-18T19:42:19.542Z,5.90
2023-04-18T19:44:45.925Z,6.70
2023-04-18T19:47:12.257Z,6.20
2023-04-18T19:49:38.762Z,6.45
2023-04-18T19:52:06.047Z,5.78
2023-04-18T19:54:35.731Z,7.15
2023-04-18T19:57:02.649Z,6.38
2023-04-18T19:59:28.975Z,6.78
2023-04-18T20:01:56.681Z,6.70
2023-04-18T20:04:25.587Z,6.32
2023-04-18T20:06:53.671Z,6.53
2023-04-18T20:09:20.063Z,5.85
2023-04-18T20:11:47.793Z,6.38
2023-04-18T20:16:42.708Z,6.22
2023-04-18T20:19:12.441Z,6.10
2023-04-18T20:21:39.185Z,5.95
2023-04-18T20:24:06.702Z,6.53
2023-04-18T20:26:33.203Z,6.53
2023-04-18T20:28:59.605Z,5.93
2023-04-18T20:31:25.970Z,6.45
2023-04-18T20:33:52.279Z,5.30
2023-04-18T20:36:18.875Z,6.15
2023-04-18T20:38:45.293Z,6.03
2023-04-18T20:41:17.954Z,6.00
2023-04-18T20:43:45.936Z,6.45
2023-04-18T20:46:12.945Z,6.68
2023-04-18T20:48:40.197Z,6.32
2023-04-18T20:51:06.716Z,6.05
2023-04-18T20:53:33.192Z,5.75
2023-04-18T20:56:02.113Z,5.90
2023-04-18T20:58:29.607Z,5.85
2023-04-18T21:00:55.949Z,5.47
2023-04-18T21:03:22.948Z,5.55
2023-04-18T21:05:49.455Z,5.65
2023-04-18T21:08:15.871Z,6.00
2023-04-18T21:10:42.226Z,4.75
2023-04-18T21:13:09.269Z,5.93
2023-04-18T21:15:36.031Z,5.88
2023-04-18T21:18:02.469Z,5.72
2023-04-18T21:20:29.005Z,5.45
2023-04-18T21:22:55.593Z,5.53
2023-04-18T21:25:22.155Z,5.50
2023-04-18T21:27:50.403Z,5.72
2023-04-18T21:30:16.760Z,5.85
2023-04-18T21:32:43.110Z,5.82
2023-04-18T21:35:09.993Z,5.18
2023-04-18T21:37:36.381Z,5.22
2023-04-18T21:40:04.000Z,5.43
2023-04-18T21:42:30.395Z,5.03
2023-04-18T21:44:56.705Z,5.55
2023-04-18T21:47:23.109Z,5.53
2023-04-18T21:49:49.630Z,5.30
2023-04-18T21:52:15.970Z,5.85
2023-04-18T21:54:42.424Z,5.28
2023-04-18T21:57:08.792Z,5.35
2023-04-18T21:59:35.121Z,5.28
2023-04-18T22:02:01.551Z,5.63
2023-04-18T22:04:29.008Z,5.15
2023-04-18T22:06:55.920Z,5.53
2023-04-18T22:09:22.521Z,5.22
2023-04-18T22:11:51.084Z,5.75
2023-04-18T22:14:20.058Z,5.55
2023-04-18T22:16:46.444Z,5.18
2023-04-18T22:19:14.017Z,5.75
2023-04-18T22:21:40.528Z,5.28
2023-04-18T22:24:07.600Z,5.75
2023-04-18T22:26:34.051Z,5.63
2023-04-18T22:29:00.469Z,5.50
2023-04-18T22:31:27.174Z,5.05
2023-04-18T22:33:53.570Z,5.53
2023-04-18T22:36:19.984Z,5.40
2023-04-18T22:38:46.506Z,5.93
2023-04-18T22:41:12.996Z,5.47
2023-04-18T22:43:39.373Z,6.25
2023-04-18T22:46:05.935Z,5.47
2023-04-18T22:48:34.980Z,5.88
2023-04-18T22:51:01.906Z,5.88
2023-04-18T22:53:28.539Z,5.45
2023-04-18T22:55:54.931Z,6.10
2023-04-18T22:58:21.524Z,5.30
2023-04-18T23:00:47.847Z,5.60
2023-04-18T23:03:14.348Z,5.03
2023-04-18T23:05:41.364Z,5.55
2023-04-18T23:08:08.018Z,5.53
2023-04-18T23:10:34.501Z,5.63
2023-04-18T23:13:00.937Z,5.38
2023-04-18T23:15:27.411Z,4.88
2023-04-18T23:17:53.935Z,6.07
2023-04-18T23:20:21.260Z,5.70
2023-04-18T23:22:51.605Z,5.72
2023-04-18T23:25:19.379Z,5.90
2023-04-18T23:27:46.004Z,6.00
2023-04-18T23:30:12.633Z,5.53
2023-04-18T23:32:39.115Z,5.82
2023-04-18T23:35:06.420Z,5.35
2023-04-18T23:37:33.306Z,5.88
2023-04-18T23:40:00.515Z,6.18
2023-04-18T23:42:27.240Z,5.95
2023-04-18T23:44:54.505Z,6.38
2023-04-18T23:47:21.418Z,5.88
2023-04-18T23:49:47.907Z,6.30
2023-04-18T23:52:14.608Z,6.20
2023-04-18T23:54:41.098Z,6.25
2023-04-18T23:57:07.569Z,6.57
2023-04-18T23:59:33.905Z,6.70
